Time;durP1;ratioP1;P1;durP2;ratioP2;P2;SDS_P1;SDS_P2;PMS_P1;PMS_P2;Temp;Humidity;BMP_temperature;BMP_pressure;BME280_temperature;BME280_humidity;BME280_pressure;Samples;Min_cycle;Max_cycle;Signal;HPM_P1;HPM_P2
2022/01/06 00:01:21;;;;;;;40.33;5.53;;;4.50;99.90;;;;;;5094405;28;20050;-88
2022/01/06 00:03:47;;;;;;;34.90;5.38;;;4.50;99.90;;;;;;5094530;28;20028;-88
2022/01/06 00:06:12;;;;;;;44.03;5.70;;;4.50;99.90;;;;;;5113097;28;20024;-86
2022/01/06 00:08:40;;;;;;;27.38;4.15;;;4.50;99.90;;;;;;5107064;28;20080;-87
2022/01/06 00:11:08;;;;;;;39.53;5.68;;;4.40;99.90;;;;;;5112976;28;20099;-87
2022/01/06 00:24:23;;;;;;;41.20;6.30;;;4.40;99.90;;;;;;5072456;28;20074;-87
2022/01/06 00:27:03;;;;;;;43.22;6.00;;;4.40;99.90;;;;;;5074484;28;20019;-88
2022/01/06 00:29:28;;;;;;;30.90;5.13;;;4.20;99.90;;;;;;5093206;28;20027;-87
2022/01/06 00:31:54;;;;;;;32.55;5.65;;;4.20;99.90;;;;;;5112333;28;20027;-86
2022/01/06 00:34:23;;;;;;;37.88;6.53;;;4.30;99.90;;;;;;5112922;28;20027;-86
2022/01/06 00:36:48;;;;;;;40.15;6.47;;;4.20;99.90;;;;;;5112547;28;20023;-88
2022/01/06 00:39:14;;;;;;;33.17;6.50;;;4.20;99.90;;;;;;5094247;28;20023;-88
2022/01/06 00:41:41;;;;;;;22.30;4.93;;;4.20;99.90;;;;;;5112564;28;20018;-87
2022/01/06 00:44:08;;;;;;;29.30;4.50;;;4.20;99.90;;;;;;5112619;28;20472;-87
2022/01/06 00:46:34;;;;;;;36.10;5.07;;;4.10;99.90;;;;;;5112278;28;20348;-87
2022/01/06 00:49:34;;;;;;;32.45;4.90;;;4.10;99.90;;;;;;5112843;28;20034;-89
2022/01/06 00:52:00;;;;;;;36.03;4.70;;;4.10;99.90;;;;;;5093731;28;20473;-86
2022/01/06 00:54:25;;;;;;;48.75;6.47;;;4.10;99.90;;;;;;5112780;28;20120;-89
2022/01/06 00:56:53;;;;;;;36.20;4.05;;;4.10;99.90;;;;;;5112812;28;20360;-87
2022/01/06 00:59:19;;;;;;;39.92;5.80;;;4.10;99.90;;;;;;5112729;28;20463;-88
2022/01/06 01:01:44;;;;;;;44.50;5.55;;;4.10;99.90;;;;;;5111707;28;20048;-87
2022/01/06 01:04:12;;;;;;;30.88;5.10;;;4.10;99.90;;;;;;5112754;28;20020;-88
2022/01/06 01:06:38;;;;;;;30.10;4.55;;;4.10;99.90;;;;;;5112822;28;20024;-87
2022/01/06 01:09:04;;;;;;;17.20;4.38;;;4.10;99.90;;;;;;5112437;28;20444;-87
2022/01/06 01:11:35;;;;;;;22.20;3.65;;;4.10;99.90;;;;;;5112452;28;20036;-87
2022/01/06 01:14:16;;;;;;;24.33;4.80;;;4.10;99.90;;;;;;5112525;28;20035;-88
2022/01/06 01:16:50;;;;;;;30.33;4.95;;;4.00;99.90;;;;;;5077532;28;20027;-88
2022/01/06 01:19:15;;;;;;;26.95;3.88;;;3.90;99.90;;;;;;5112792;28;20475;-89
2022/01/06 01:21:41;;;;;;;35.78;5.47;;;3.90;99.90;;;;;;5094191;28;20042;-86
2022/01/06 01:24:07;;;;;;;22.40;3.72;;;4.00;99.90;;;;;;5115936;28;20028;-88
2022/01/06 01:26:33;;;;;;;34.90;6.07;;;4.00;99.90;;;;;;5097620;28;20019;-86
2022/01/06 01:28:58;;;;;;;20.05;5.60;;;4.00;99.90;;;;;;5115886;28;20031;-88
2022/01/06 01:31:36;;;;;;;22.73;5.10;;;4.00;99.90;;;;;;5115545;28;20036;-88
2022/01/06 01:34:08;;;;;;;24.52;3.80;;;4.00;99.90;;;;;;5115790;28;20456;-89
2022/01/06 01:36:34;;;;;;;29.50;4.22;;;4.00;99.90;;;;;;5115925;28;20072;-87
2022/01/06 01:39:02;;;;;;;24.77;4.13;;;3.90;99.90;;;;;;5115618;28;20023;-87
2022/01/06 01:41:28;;;;;;;20.67;3.60;;;3.90;99.90;;;;;;5115771;28;20487;-87
2022/01/06 01:43:55;;;;;;;28.80;3.70;;;4.00;99.90;;;;;;5115725;28;20051;-87
2022/01/06 01:46:30;;;;;;;23.38;3.10;;;4.00;99.90;;;;;;5115332;28;20041;-87
2022/01/06 01:49:16;;;;;;;36.13;3.53;;;4.10;99.90;;;;;;5115655;28;20083;-88
2022/01/06 01:51:42;;;;;;;;;;;4.10;99.90;;;;;;5115904;28;20036;-87
2022/01/06 01:54:08;;;;;;;;;;;4.10;99.90;;;;;;5116128;28;19911;-87
2022/01/06 01:56:34;;;;;;;21.02;3.88;;;4.00;99.90;;;;;;5097230;28;20351;-87
2022/01/06 01:58:59;;;;;;;17.92;3.25;;;4.10;99.90;;;;;;5115363;28;20030;-89
2022/01/06 02:01:25;;;;;;;21.55;3.13;;;4.10;99.90;;;;;;5114307;28;20401;-87
2022/01/06 02:03:56;;;;;;;17.02;2.55;;;4.10;99.90;;;;;;5115589;28;20038;-87
2022/01/06 02:06:22;;;;;;;21.05;3.17;;;4.10;99.90;;;;;;5115316;28;20031;-86
2022/01/06 02:08:54;;;;;;;18.17;3.58;;;4.00;99.90;;;;;;5114997;28;20026;-86
2022/01/06 02:11:20;;;;;;;18.15;2.88;;;4.00;99.90;;;;;;5115186;28;20047;-87
2022/01/06 02:13:47;;;;;;;23.85;3.45;;;3.90;99.90;;;;;;5096989;28;20445;-87
2022/01/06 02:16:25;;;;;;;22.17;2.83;;;3.80;99.90;;;;;;5114823;28;20383;-86
2022/01/06 02:18:51;;;;;;;13.93;2.80;;;3.80;99.90;;;;;;5074386;28;20028;-87
2022/01/06 02:21:18;;;;;;;10.95;2.67;;;3.70;99.90;;;;;;5120355;27;20027;-86
2022/01/06 02:23:43;;;;;;;9.95;2.10;;;3.70;99.90;;;;;;5096502;28;20024;-89
2022/01/06 02:26:10;;;;;;;10.40;2.55;;;3.70;99.90;;;;;;5115145;28;20387;-89
2022/01/06 02:28:35;;;;;;;10.52;2.90;;;3.60;99.90;;;;;;5096621;28;20042;-88
2022/01/06 02:31:03;;;;;;;16.33;3.13;;;3.40;99.90;;;;;;5114414;28;20114;-87
2022/01/06 02:33:29;;;;;;;12.82;3.85;;;3.20;99.90;;;;;;5114680;28;20106;-88
2022/01/06 02:36:01;;;;;;;9.30;2.80;;;3.20;99.90;;;;;;5114725;28;20066;-89
2022/01/06 02:38:26;;;;;;;8.00;1.98;;;3.00;99.90;;;;;;5114466;28;20118;-88
2022/01/06 02:41:01;;;;;;;5.00;2.33;;;2.90;99.90;;;;;;5114751;28;20099;-87
2022/01/06 02:43:29;;;;;;;10.15;2.53;;;2.80;99.90;;;;;;5114304;28;20016;-87
2022/01/06 02:45:55;;;;;;;10.07;2.50;;;2.80;99.90;;;;;;5114372;28;20028;-87
2022/01/06 02:48:41;;;;;;;7.18;2.20;;;2.70;99.90;;;;;;5096400;28;20027;-89
2022/01/06 02:51:06;;;;;;;4.60;1.73;;;2.60;99.90;;;;;;5114610;28;20390;-88
2022/01/06 02:53:39;;;;;;;5.47;2.17;;;2.60;99.90;;;;;;5113958;28;20106;-87
2022/01/06 02:56:04;;;;;;;9.10;1.88;;;2.60;99.90;;;;;;5114167;28;20035;-87
2022/01/06 02:58:30;;;;;;;12.75;1.92;;;2.60;99.90;;;;;;5113867;28;20031;-88
2022/01/06 03:00:55;;;;;;;4.80;2.08;;;2.50;99.90;;;;;;5113726;28;20490;-88
2022/01/06 03:03:21;;;;;;;6.97;2.40;;;2.60;99.90;;;;;;5114110;28;20114;-87
2022/01/06 03:05:46;;;;;;;8.52;2.20;;;2.40;99.90;;;;;;5114088;28;20436;-87
2022/01/06 03:08:22;;;;;;;6.80;2.55;;;2.40;99.90;;;;;;5095744;28;20077;-86
2022/01/06 03:10:49;;;;;;;9.27;2.47;;;2.40;99.90;;;;;;5114158;28;20023;-87
2022/01/06 03:13:15;;;;;;;4.07;1.60;;;2.40;99.90;;;;;;5113760;28;20024;-88
2022/01/06 03:15:41;;;;;;;10.68;2.60;;;2.40;99.90;;;;;;5113617;28;20040;-87
2022/01/06 03:18:06;;;;;;;3.95;2.03;;;2.40;99.90;;;;;;5095526;28;20027;-88
2022/01/06 03:20:34;;;;;;;5.88;2.10;;;2.40;99.90;;;;;;5113920;28;20098;-87
2022/01/06 03:23:12;;;;;;;9.70;1.98;;;2.30;99.90;;;;;;5113172;28;20146;-86
2022/01/06 03:25:37;;;;;;;9.82;2.40;;;2.40;99.90;;;;;;5095755;28;20147;-86
2022/01/06 03:28:03;;;;;;;4.28;2.38;;;2.30;99.90;;;;;;5113619;28;20051;-88
2022/01/06 03:30:41;;;;;;;8.38;2.92;;;2.30;99.90;;;;;;5094913;28;20020;-88
2022/01/06 03:33:06;;;;;;;14.23;2.53;;;2.10;99.90;;;;;;5113681;28;20028;-88
2022/01/06 03:35:32;;;;;;;7.05;1.98;;;2.10;99.90;;;;;;5113498;28;20514;-86
2022/01/06 03:38:00;;;;;;;4.18;1.65;;;2.10;99.90;;;;;;5113460;28;20055;-87
2022/01/06 03:40:26;;;;;;;7.25;2.50;;;2.10;99.90;;;;;;5113292;28;20047;-86
2022/01/06 03:42:51;;;;;;;10.75;2.67;;;2.10;99.90;;;;;;5095159;28;20124;-87
2022/01/06 03:45:21;;;;;;;7.28;2.40;;;2.10;99.90;;;;;;5094730;28;20417;-87
2022/01/06 03:47:47;;;;;;;10.00;2.47;;;2.10;99.90;;;;;;5113504;28;20475;-87
2022/01/06 03:50:15;;;;;;;19.67;2.75;;;2.10;99.90;;;;;;5113436;28;20034;-88
2022/01/06 03:52:56;;;;;;;8.48;2.70;;;2.10;99.90;;;;;;5113380;28;20383;-87
2022/01/06 03:55:23;;;;;;;8.07;2.35;;;2.10;99.90;;;;;;5113193;28;20031;-87
2022/01/06 03:57:49;;;;;;;10.73;2.92;;;2.10;99.90;;;;;;5113198;28;20040;-88
2022/01/06 04:00:31;;;;;;;13.38;2.88;;;2.00;99.90;;;;;;5112636;28;20483;-86
2022/01/06 04:02:57;;;;;;;12.43;5.05;;;2.00;99.90;;;;;;5112678;28;20052;-87
2022/01/06 04:05:23;;;;;;;9.20;2.72;;;2.00;99.90;;;;;;5113116;28;20385;-87
2022/01/06 04:07:49;;;;;;;9.68;2.30;;;2.00;99.90;;;;;;5113011;28;20094;-87
2022/01/06 04:10:15;;;;;;;8.63;2.35;;;2.00;99.90;;;;;;5112919;28;20016;-87
2022/01/06 04:12:42;;;;;;;5.93;2.13;;;1.90;99.90;;;;;;5112339;28;20816;-87
2022/01/06 04:15:13;;;;;;;5.18;2.38;;;1.90;99.90;;;;;;5112720;28;20031;-87
2022/01/06 04:17:43;;;;;;;9.77;2.97;;;1.80;99.90;;;;;;5112907;28;20033;-88
2022/01/06 04:20:12;;;;;;;6.93;2.33;;;1.80;99.90;;;;;;5094655;28;20023;-88
2022/01/06 04:22:38;;;;;;;9.50;2.05;;;1.80;99.90;;;;;;5113075;28;20027;-87
2022/01/06 04:25:04;;;;;;;10.27;2.10;;;1.70;99.90;;;;;;5094366;28;20028;-87
2022/01/06 04:27:32;;;;;;;12.55;2.75;;;1.70;99.90;;;;;;5094648;28;20035;-87
2022/01/06 04:29:58;;;;;;;6.15;2.13;;;1.60;99.90;;;;;;5113022;28;20036;-88
2022/01/06 04:32:33;;;;;;;11.95;3.03;;;1.60;99.90;;;;;;5109960;28;20493;-87
2022/01/06 04:34:59;;;;;;;4.25;1.70;;;1.60;99.90;;;;;;5113013;28;20057;-87
2022/01/06 04:37:26;;;;;;;14.68;2.63;;;1.60;99.90;;;;;;5112886;28;20028;-87
2022/01/06 04:39:55;;;;;;;4.05;2.08;;;1.60;99.90;;;;;;5094593;28;20160;-87
2022/01/06 04:42:21;;;;;;;8.13;1.95;;;1.50;99.90;;;;;;5094400;28;20039;-87
2022/01/06 04:44:46;;;;;;;6.13;2.42;;;1.40;99.90;;;;;;5112708;28;20024;-88
2022/01/06 04:47:12;;;;;;;9.90;2.20;;;1.40;99.90;;;;;;5112562;28;20034;-88
2022/01/06 04:49:38;;;;;;;9.50;2.33;;;1.40;99.90;;;;;;5101133;28;20514;-87
2022/01/06 04:52:04;;;;;;;17.38;3.13;;;1.40;99.90;;;;;;5109301;28;20067;-87
2022/01/06 04:54:30;;;;;;;5.95;2.05;;;1.30;99.90;;;;;;5094533;28;20491;-88
2022/01/06 04:56:56;;;;;;;12.82;2.20;;;1.30;99.90;;;;;;5095438;28;20122;-85
2022/01/06 04:59:22;;;;;;;14.00;3.03;;;1.20;99.90;;;;;;5097661;28;20123;-84
2022/01/06 05:01:50;;;;;;;4.97;2.30;;;1.20;99.90;;;;;;5116213;28;20115;-84
2022/01/06 05:04:15;;;;;;;12.88;2.45;;;1.20;99.90;;;;;;5098383;28;20053;-84
2022/01/06 05:06:41;;;;;;;10.52;3.03;;;1.10;99.90;;;;;;5116472;28;20552;-84
2022/01/06 05:09:07;;;;;;;4.95;2.10;;;1.10;99.90;;;;;;5116524;28;20502;-85
2022/01/06 05:11:33;;;;;;;7.57;2.78;;;1.10;99.90;;;;;;5116328;28;20035;-84
2022/01/06 05:13:59;;;;;;;10.15;2.63;;;1.10;99.90;;;;;;5116263;28;20028;-83
2022/01/06 05:16:24;;;;;;;9.32;2.40;;;1.10;99.90;;;;;;5115891;28;20106;-84
2022/01/06 05:18:50;;;;;;;14.27;3.13;;;1.00;99.90;;;;;;5116194;28;20027;-84
2022/01/06 05:21:30;;;;;;;11.25;2.97;;;1.10;99.90;;;;;;5116051;28;20027;-85
2022/01/06 05:23:56;;;;;;;10.80;2.75;;;1.00;99.90;;;;;;5116122;28;20027;-84
2022/01/06 05:26:22;;;;;;;7.57;3.22;;;1.00;99.90;;;;;;5116073;28;20030;-83
2022/01/06 05:29:00;;;;;;;7.53;3.00;;;1.00;99.90;;;;;;5116121;28;20020;-83
2022/01/06 05:31:25;;;;;;;7.60;2.60;;;1.10;99.90;;;;;;5091896;28;20046;-83
2022/01/06 05:33:51;;;;;;;6.95;2.35;;;1.00;99.90;;;;;;5116060;28;20035;-83
2022/01/06 05:36:18;;;;;;;13.63;2.97;;;1.00;99.90;;;;;;5115877;28;20028;-83
2022/01/06 05:38:44;;;;;;;9.93;3.17;;;1.00;99.90;;;;;;5115570;28;20035;-84
2022/01/06 05:41:09;;;;;;;7.68;3.10;;;1.00;99.90;;;;;;5115483;28;20111;-83
2022/01/06 05:43:41;;;;;;;20.50;3.20;;;1.00;99.90;;;;;;5115662;28;20028;-83
2022/01/06 05:46:06;;;;;;;8.02;2.92;;;1.00;99.90;;;;;;5097046;28;20023;-83
2022/01/06 05:48:32;;;;;;;9.30;3.00;;;1.00;99.90;;;;;;5115763;28;20028;-84
2022/01/06 05:50:58;;;;;;;12.38;3.58;;;1.00;99.90;;;;;;5115758;28;20027;-83
2022/01/06 05:53:25;;;;;;;19.23;3.45;;;0.90;99.90;;;;;;5097240;28;20058;-83
2022/01/06 05:55:50;;;;;;;10.18;2.65;;;0.90;99.90;;;;;;5097306;28;20043;-83
2022/01/06 05:58:17;;;;;;;6.43;2.28;;;0.90;99.90;;;;;;5115483;28;20024;-83
2022/01/06 06:00:43;;;;;;;10.90;3.08;;;0.90;99.90;;;;;;5114877;28;20422;-83
2022/01/06 06:03:08;;;;;;;9.82;3.03;;;0.90;99.90;;;;;;5115466;28;20061;-83
2022/01/06 06:05:44;;;;;;;8.45;2.78;;;0.80;99.90;;;;;;5115465;28;20026;-83
2022/01/06 06:08:10;;;;;;;8.77;3.45;;;0.90;99.90;;;;;;5096622;28;20110;-83
2022/01/06 06:10:40;;;;;;;6.47;2.50;;;0.90;99.90;;;;;;5115536;28;20118;-83
2022/01/06 06:13:05;;;;;;;6.70;2.83;;;0.90;99.90;;;;;;5096652;28;20028;-83
2022/01/06 06:15:34;;;;;;;14.85;3.35;;;0.90;99.90;;;;;;5083398;28;20020;-84
2022/01/06 06:18:07;;;;;;;9.13;2.83;;;0.90;99.90;;;;;;5094833;28;20024;-83
2022/01/06 06:20:32;;;;;;;7.80;2.78;;;0.90;99.90;;;;;;5094880;28;20107;-83
2022/01/06 06:23:00;;;;;;;13.40;5.63;;;0.90;99.90;;;;;;5114352;28;20084;-83
2022/01/06 06:25:26;;;;;;;6.43;2.70;;;0.90;99.90;;;;;;5114782;28;20023;-83
2022/01/06 06:27:52;;;;;;;10.52;2.50;;;0.90;99.90;;;;;;5115026;28;20027;-83
2022/01/06 06:30:19;;;;;;;11.43;2.65;;;0.90;99.90;;;;;;5095425;28;20363;-84
2022/01/06 06:32:45;;;;;;;7.88;2.67;;;0.90;99.90;;;;;;5114271;28;20035;-84
2022/01/06 06:35:11;;;;;;;6.97;2.38;;;1.00;99.90;;;;;;5114388;28;20035;-84
2022/01/06 06:37:39;;;;;;;13.43;2.47;;;1.00;99.90;;;;;;5114438;28;20023;-84
2022/01/06 06:40:06;;;;;;;8.45;2.60;;;1.00;99.90;;;;;;5114487;28;20028;-84
2022/01/06 06:42:31;;;;;;;15.13;2.60;;;0.90;99.90;;;;;;5113294;28;20032;-84
2022/01/06 06:44:57;;;;;;;6.25;2.60;;;0.90;99.90;;;;;;5094832;28;20046;-84
2022/01/06 06:47:24;;;;;;;4.13;2.10;;;0.90;99.90;;;;;;5113201;28;20719;-84
2022/01/06 06:49:50;;;;;;;15.63;2.22;;;0.90;99.90;;;;;;5111779;28;20027;-83
2022/01/06 06:52:15;;;;;;;5.15;2.63;;;0.80;99.90;;;;;;5113096;28;20031;-83
2022/01/06 06:54:41;;;;;;;10.35;2.67;;;0.90;99.90;;;;;;5092117;28;20411;-84
2022/01/06 06:57:07;;;;;;;8.88;2.75;;;0.80;99.90;;;;;;5093724;28;20035;-84
2022/01/06 06:59:34;;;;;;;6.18;2.35;;;0.80;99.90;;;;;;5110712;28;20096;-84
2022/01/06 07:01:59;;;;;;;7.05;2.33;;;0.80;99.90;;;;;;5112891;28;20101;-84
2022/01/06 07:04:25;;;;;;;5.60;2.05;;;0.90;99.90;;;;;;5113249;28;20443;-83
2022/01/06 07:06:50;;;;;;;13.10;2.42;;;0.90;99.90;;;;;;5095785;28;20387;-83
2022/01/06 07:09:16;;;;;;;5.72;2.53;;;1.00;99.90;;;;;;5094973;28;20433;-83
2022/01/06 07:11:42;;;;;;;4.82;2.15;;;0.90;99.90;;;;;;5112993;28;20122;-83
2022/01/06 07:14:07;;;;;;;9.13;2.00;;;1.00;99.90;;;;;;5112147;28;20070;-83
2022/01/06 07:16:33;;;;;;;10.02;2.30;;;0.90;99.90;;;;;;5113218;28;20063;-83
2022/01/06 07:18:58;;;;;;;20.45;3.33;;;0.90;99.90;;;;;;5112415;28;20066;-83
2022/01/06 07:21:24;;;;;;;7.82;2.33;;;0.90;99.90;;;;;;5112767;28;20032;-84
2022/01/06 07:23:51;;;;;;;13.07;2.65;;;0.90;99.90;;;;;;5111528;28;20089;-83
2022/01/06 07:26:18;;;;;;;3.05;1.80;;;0.90;99.90;;;;;;5104464;28;20035;-83
2022/01/06 07:28:44;;;;;;;7.38;2.25;;;0.90;99.90;;;;;;5110217;28;20024;-83
2022/01/06 07:31:10;;;;;;;9.00;2.67;;;1.00;99.90;;;;;;5109692;28;20140;-84
2022/01/06 07:33:36;;;;;;;10.63;2.53;;;1.00;99.90;;;;;;5093881;28;20023;-83
2022/01/06 07:36:02;;;;;;;5.15;1.98;;;1.00;99.90;;;;;;5094779;28;20427;-83
2022/01/06 07:38:28;;;;;;;6.43;2.47;;;1.00;99.90;;;;;;5112751;28;20073;-84
2022/01/06 07:40:55;;;;;;;10.25;2.72;;;1.00;99.90;;;;;;5094166;28;20455;-83
2022/01/06 07:43:21;;;;;;;12.90;2.95;;;1.10;99.90;;;;;;5099481;28;20368;-83
2022/01/06 07:45:48;;;;;;;7.80;2.00;;;1.10;99.90;;;;;;5077477;28;20035;-83
2022/01/06 07:48:19;;;;;;;6.85;2.10;;;1.10;99.90;;;;;;5104120;28;20107;-83
2022/01/06 07:50:46;;;;;;;10.10;2.38;;;1.10;99.90;;;;;;5082252;28;20032;-83
2022/01/06 07:53:12;;;;;;;11.68;2.42;;;1.20;99.90;;;;;;5105473;28;20384;-83
2022/01/06 07:55:38;;;;;;;12.05;2.17;;;1.10;99.90;;;;;;5094149;28;20387;-83
2022/01/06 07:58:04;;;;;;;27.17;4.28;;;1.20;99.90;;;;;;5095547;28;20106;-83
2022/01/06 08:00:31;;;;;;;6.72;2.30;;;1.20;99.90;;;;;;5108710;28;20035;-83
2022/01/06 08:02:56;;;;;;;9.02;2.53;;;1.20;99.90;;;;;;5090959;28;20113;-84
2022/01/06 08:05:25;;;;;;;13.77;2.65;;;1.20;99.90;;;;;;5092183;28;20024;-84
2022/01/06 08:07:51;;;;;;;6.65;2.50;;;1.30;99.90;;;;;;5092216;28;20443;-83
2022/01/06 08:10:17;;;;;;;7.05;2.17;;;1.30;99.90;;;;;;5092069;28;20383;-83
2022/01/06 08:12:43;;;;;;;10.15;3.00;;;1.30;99.90;;;;;;5103957;28;20031;-83
2022/01/06 08:15:09;;;;;;;6.10;2.08;;;1.30;99.90;;;;;;5087660;28;20390;-83
2022/01/06 08:17:36;;;;;;;3.65;2.35;;;1.40;99.90;;;;;;5095819;28;20032;-83
2022/01/06 08:20:06;;;;;;;5.28;1.73;;;1.40;99.90;;;;;;5091919;28;20016;-83
2022/01/06 08:22:32;;;;;;;11.13;2.28;;;1.50;99.90;;;;;;5090596;28;20471;-84
2022/01/06 08:24:58;;;;;;;20.63;2.20;;;1.40;99.90;;;;;;5092386;28;20028;-84
2022/01/06 08:27:24;;;;;;;6.25;1.95;;;1.50;99.90;;;;;;5078502;28;20031;-83
2022/01/06 08:29:51;;;;;;;7.38;1.98;;;1.50;99.90;;;;;;5073083;28;20089;-83
2022/01/06 08:32:17;;;;;;;7.68;2.03;;;1.50;99.90;;;;;;5101502;28;20619;-83
2022/01/06 08:34:43;;;;;;;11.20;2.85;;;1.50;99.90;;;;;;5110521;27;20035;-83
2022/01/06 08:37:08;;;;;;;16.17;2.35;;;1.60;99.90;;;;;;5116573;28;20032;-84
2022/01/06 08:39:34;;;;;;;16.00;1.85;;;1.60;99.90;;;;;;5085340;28;20395;-84
2022/01/06 08:42:00;;;;;;;5.72;1.52;;;1.60;99.90;;;;;;5111765;28;20027;-84
2022/01/06 08:44:27;;;;;;;14.63;2.15;;;1.60;99.90;;;;;;5080936;28;20447;-83
2022/01/06 08:46:53;;;;;;;4.82;2.25;;;1.70;99.90;;;;;;5097436;28;20463;-83
2022/01/06 08:49:19;;;;;;;3.38;1.70;;;1.70;99.90;;;;;;5115058;28;20030;-83
2022/01/06 08:51:45;;;;;;;6.38;1.80;;;1.70;99.90;;;;;;5105228;28;20085;-83
2022/01/06 08:54:11;;;;;;;9.07;1.50;;;1.80;99.90;;;;;;5112168;28;20422;-83
2022/01/06 08:56:38;;;;;;;6.72;2.05;;;1.80;99.90;;;;;;5093789;28;20107;-83
2022/01/06 08:59:04;;;;;;;3.40;1.40;;;1.80;99.90;;;;;;5112181;28;20035;-83
2022/01/06 09:01:31;;;;;;;11.98;2.17;;;1.90;99.90;;;;;;5110030;28;20430;-83
2022/01/06 09:03:57;;;;;;;12.73;2.03;;;2.00;99.90;;;;;;5095766;28;20027;-83
2022/01/06 09:06:22;;;;;;;4.47;1.48;;;2.00;99.90;;;;;;5115707;28;20037;-84
2022/01/06 09:08:48;;;;;;;12.30;2.10;;;2.00;99.90;;;;;;5097279;28;20024;-83
2022/01/06 09:11:14;;;;;;;5.45;1.88;;;2.10;99.90;;;;;;5097265;28;20030;-84
2022/01/06 09:13:41;;;;;;;7.47;2.00;;;2.00;99.90;;;;;;5115558;28;20027;-83
2022/01/06 09:16:08;;;;;;;9.52;2.03;;;2.00;99.90;;;;;;5115619;28;20032;-83
2022/01/06 09:18:35;;;;;;;10.02;2.53;;;2.10;99.90;;;;;;5115398;28;20410;-83
2022/01/06 09:21:03;;;;;;;2.72;1.33;;;2.00;99.90;;;;;;5097009;28;20042;-84
2022/01/06 09:23:29;;;;;;;3.47;1.45;;;2.00;99.90;;;;;;5112057;28;20085;-84
2022/01/06 09:25:55;;;;;;;7.40;1.88;;;2.10;99.90;;;;;;5112211;28;20027;-83
2022/01/06 09:28:21;;;;;;;10.07;1.90;;;2.20;99.90;;;;;;5097464;28;20096;-84
2022/01/06 09:30:46;;;;;;;11.50;2.05;;;2.20;99.90;;;;;;5096248;28;20672;-83
2022/01/06 09:33:13;;;;;;;9.07;1.67;;;2.20;99.90;;;;;;5094625;28;20043;-83
2022/01/06 09:35:39;;;;;;;6.90;2.13;;;2.20;99.90;;;;;;5096657;28;20123;-84
2022/01/06 09:38:05;;;;;;;3.35;1.63;;;2.30;99.90;;;;;;5113103;28;20466;-84
2022/01/06 09:40:30;;;;;;;8.15;2.10;;;2.30;99.90;;;;;;5114350;28;20031;-83
2022/01/06 09:42:57;;;;;;;4.25;1.95;;;2.30;99.90;;;;;;5113880;28;20031;-84
2022/01/06 09:45:27;;;;;;;6.68;2.17;;;2.30;99.90;;;;;;5096324;28;20118;-83
2022/01/06 09:47:53;;;;;;;3.83;1.80;;;2.30;99.90;;;;;;5115048;28;20475;-83
2022/01/06 09:50:20;;;;;;;16.33;2.33;;;2.40;99.90;;;;;;5094562;28;20031;-83
2022/01/06 09:52:46;;;;;;;3.45;1.58;;;2.40;99.90;;;;;;5114386;28;20134;-83
2022/01/06 09:55:13;;;;;;;10.07;2.60;;;2.40;99.90;;;;;;5096418;28;20415;-84
2022/01/06 09:57:39;;;;;;;10.75;2.65;;;2.40;99.90;;;;;;5115259;28;20480;-84
2022/01/06 10:00:08;;;;;;;12.15;2.88;;;2.40;99.90;;;;;;5095984;28;20055;-83
2022/01/06 10:02:39;;;;;;;5.82;2.60;;;2.40;99.90;;;;;;5114404;28;20440;-83
2022/01/06 10:05:06;;;;;;;5.50;1.92;;;2.40;99.90;;;;;;5114449;28;20059;-83
2022/01/06 10:07:40;;;;;;;6.70;2.10;;;2.50;99.90;;;;;;5111001;28;20077;-83
2022/01/06 10:10:08;;;;;;;3.70;1.58;;;2.50;99.90;;;;;;5098863;28;20068;-83
2022/01/06 10:12:55;;;;;;;9.25;2.10;;;2.50;99.90;;;;;;5089961;28;20122;-83
2022/01/06 10:15:23;;;;;;;3.67;1.40;;;2.50;99.90;;;;;;5083635;28;20031;-83
2022/01/06 10:17:49;;;;;;;6.05;1.80;;;2.60;99.90;;;;;;5115387;28;20107;-83
2022/01/06 10:20:26;;;;;;;7.72;1.90;;;2.70;99.90;;;;;;5114970;28;20034;-83
2022/01/06 10:22:57;;;;;;;6.28;2.08;;;2.70;99.90;;;;;;5109218;28;20028;-83
2022/01/06 10:25:26;;;;;;;4.65;1.80;;;2.80;99.90;;;;;;5104142;28;20032;-83
2022/01/06 10:27:56;;;;;;;3.65;1.88;;;2.80;99.90;;;;;;5103509;28;20054;-83
2022/01/06 10:30:26;;;;;;;9.77;1.70;;;2.80;99.90;;;;;;5076169;28;20449;-83
2022/01/06 10:32:56;;;;;;;2.55;1.75;;;2.80;99.90;;;;;;5074310;28;20025;-83
2022/01/06 10:35:23;;;;;;;7.32;1.85;;;2.80;99.90;;;;;;5074258;28;20024;-83
2022/01/06 10:37:50;;;;;;;5.70;2.33;;;2.80;99.90;;;;;;5055929;28;20032;-83
2022/01/06 10:40:22;;;;;;;4.32;1.63;;;2.80;99.90;;;;;;5056162;28;20032;-84
2022/01/06 10:42:50;;;;;;;4.22;1.60;;;2.90;99.90;;;;;;5074157;28;20461;-83
2022/01/06 10:45:27;;;;;;;9.35;1.95;;;2.90;99.90;;;;;;5075056;28;20033;-83
2022/01/06 10:47:55;;;;;;;7.30;1.63;;;2.80;99.90;;;;;;5118795;27;20157;-83
2022/01/06 10:50:36;;;;;;;8.57;2.10;;;2.80;99.90;;;;;;5110030;28;20059;-83
2022/01/06 10:53:05;;;;;;;9.23;1.77;;;2.80;99.90;;;;;;5121718;27;20028;-83
2022/01/06 10:55:46;;;;;;;3.60;1.50;;;2.90;99.90;;;;;;5092836;28;20032;-83
2022/01/06 10:58:13;;;;;;;3.63;2.05;;;2.90;99.90;;;;;;5093863;28;20024;-82
2022/01/06 11:00:54;;;;;;;10.07;2.17;;;3.00;99.90;;;;;;5092086;28;20111;-83
2022/01/06 11:03:23;;;;;;;5.30;1.90;;;3.00;99.90;;;;;;5109083;28;20080;-84
2022/01/06 11:05:51;;;;;;;3.05;1.70;;;3.00;99.90;;;;;;5113469;28;20020;-84
2022/01/06 11:08:28;;;;;;;10.52;2.42;;;3.10;99.90;;;;;;5105481;28;20024;-83
2022/01/06 11:13:37;;;;;;;4.22;1.50;;;3.20;99.90;;;;;;5111897;28;20020;-83
2022/01/06 11:16:06;;;;;;;4.70;1.70;;;3.10;99.90;;;;;;5111374;28;20023;-83
2022/01/06 11:18:34;;;;;;;4.82;1.77;;;3.20;99.90;;;;;;5112949;28;20027;-83
2022/01/06 11:21:09;;;;;;;5.97;1.67;;;3.20;99.90;;;;;;5094523;28;20024;-83
2022/01/06 11:23:35;;;;;;;11.90;2.13;;;3.30;99.90;;;;;;5110164;28;20028;-83
2022/01/06 11:26:18;;;;;;;8.93;1.88;;;3.40;99.90;;;;;;5084732;28;20587;-83
2022/01/06 11:28:55;;;;;;;14.07;2.33;;;3.40;99.90;;;;;;5094041;28;20042;-83
2022/01/06 11:31:23;;;;;;;7.15;2.10;;;3.40;99.90;;;;;;5112879;28;20442;-83
2022/01/06 11:33:50;;;;;;;12.73;2.40;;;3.40;99.90;;;;;;5112704;28;20027;-83
2022/01/06 11:36:19;;;;;;;11.23;2.10;;;3.50;99.90;;;;;;5113002;28;20031;-84
2022/01/06 11:38:47;;;;;;;12.73;1.92;;;3.50;99.90;;;;;;5094720;28;20043;-83
2022/01/06 11:41:16;;;;;;;9.27;2.88;;;3.50;99.90;;;;;;5112528;28;20060;-83
2022/01/06 11:43:45;;;;;;;13.95;3.67;;;3.50;99.90;;;;;;5094076;28;20057;-83
2022/01/06 11:46:12;;;;;;;13.45;2.50;;;3.50;99.90;;;;;;5072358;28;20017;-83
2022/01/06 11:48:48;;;;;;;15.73;3.50;;;3.60;99.90;;;;;;5095930;28;20039;-83
2022/01/06 11:51:26;;;;;;;10.65;2.22;;;3.60;99.90;;;;;;5112357;28;20401;-84
2022/01/06 11:53:52;;;;;;;7.72;2.40;;;3.60;99.90;;;;;;5091744;28;20055;-83
2022/01/06 11:56:17;;;;;;;8.20;2.25;;;3.60;99.90;;;;;;5110996;28;20055;-83
2022/01/06 11:58:55;;;;;;;8.93;2.55;;;3.70;99.90;;;;;;5100502;28;20364;-84
2022/01/06 12:01:21;;;;;;;9.40;1.90;;;3.80;99.90;;;;;;5093723;28;20051;-83
2022/01/06 12:03:47;;;;;;;12.82;2.42;;;3.90;99.90;;;;;;5092456;28;20019;-84
2022/01/06 12:06:24;;;;;;;4.60;2.20;;;3.90;99.90;;;;;;5101666;28;20108;-83
2022/01/06 12:08:50;;;;;;;17.00;4.57;;;4.00;99.90;;;;;;5105534;28;20019;-84
2022/01/06 12:11:21;;;;;;;8.82;2.90;;;4.10;99.90;;;;;;5112495;28;20099;-83
2022/01/06 12:13:47;;;;;;;21.90;4.70;;;4.10;99.90;;;;;;5112680;28;20024;-84
2022/01/06 12:16:43;;;;;;;8.55;1.75;;;4.20;99.90;;;;;;5112465;28;20031;-83
2022/01/06 12:19:20;;;;;;;12.45;2.50;;;4.30;99.90;;;;;;5112103;28;20088;-84
2022/01/06 12:21:47;;;;;;;24.17;6.35;;;4.20;99.90;;;;;;5112652;28;20028;-83
2022/01/06 12:24:13;;;;;;;12.35;3.25;;;4.20;99.90;;;;;;5102769;28;20028;-83
2022/01/06 12:26:40;;;;;;;10.82;1.98;;;4.20;99.90;;;;;;5092293;28;20034;-83
2022/01/06 12:29:20;;;;;;;9.00;1.77;;;4.20;99.90;;;;;;5091669;28;20079;-83
2022/01/06 12:31:47;;;;;;;13.68;2.50;;;4.20;99.90;;;;;;5105278;28;20028;-83
2022/01/06 12:34:14;;;;;;;10.27;2.13;;;4.20;99.90;;;;;;5110895;28;20036;-82
2022/01/06 12:36:43;;;;;;;13.13;2.33;;;4.20;99.90;;;;;;5092769;28;20379;-83
2022/01/06 12:39:18;;;;;;;13.43;2.42;;;4.20;99.90;;;;;;5096202;28;20023;-83
2022/01/06 12:41:45;;;;;;;12.98;2.30;;;4.20;99.90;;;;;;5095050;28;20413;-83
2022/01/06 12:44:21;;;;;;;8.27;2.90;;;4.20;99.90;;;;;;5112436;28;20027;-83
2022/01/06 12:46:46;;;;;;;;;;;4.20;99.90;;;;;;5113215;28;20467;-83
2022/01/06 12:49:12;;;;;;;12.95;2.45;;;4.20;99.90;;;;;;5112992;28;19914;-82
2022/01/06 12:51:44;;;;;;;15.20;1.90;;;4.30;99.90;;;;;;5106679;28;20039;-83
2022/01/06 12:54:17;;;;;;;9.15;2.00;;;4.20;99.90;;;;;;5111567;28;20019;-82
2022/01/06 12:56:49;;;;;;;12.68;1.92;;;4.30;99.90;;;;;;5112790;28;20028;-82
2022/01/06 12:59:21;;;;;;;18.20;2.33;;;4.30;99.90;;;;;;5094239;28;20028;-82
2022/01/06 13:01:52;;;;;;;7.32;2.47;;;4.30;99.90;;;;;;5101785;28;20080;-83
2022/01/06 13:04:22;;;;;;;5.20;2.28;;;4.30;99.90;;;;;;5112778;28;20034;-83
2022/01/06 13:06:53;;;;;;;12.15;4.07;;;4.30;99.90;;;;;;5110460;28;20015;-83
2022/01/06 13:09:20;;;;;;;8.07;2.08;;;4.20;99.90;;;;;;5095123;28;20032;-83
2022/01/06 13:11:55;;;;;;;18.30;3.13;;;4.30;99.90;;;;;;5074246;28;20480;-82